Amstetten, Austria
Current Conditions -  °F | °C
As of 7:20 AM on Monday 22 Dec 2014 (Local Time) from LOWL Reporting Station
Broken Clouds Broken Clouds  
Wind Chill: 32°   Ceiling: 2800
Heat Index: 41°   Visibility: 6mi
Dew Point: 32°   Wind: 17mph
Humidity: 70%   Direction: 250°WSW
Pressure: 30.27"   Gusts: NA
Location:  48.13°N, 14.86°E
Report Text: LOWL 220620Z 25015KT 9999 FEW026 BKN028 05/00 Q1025 NOSIG
Loading
Personal Weather Stations






























Interactive Weather Map New forecast layout! Learn more

10-Day Weather Forecast

Advertisements
Track Severe Weather on mobile